Vremea acum in Arad - Romania

Vrei sa afli care e starea vremii acum in Arad - Romania? Dorim sa iti furnizam starea vremii pentru Arad - Romania. Starea vremii Arad - Romania pentru astazi.

Vremea acum in Arad

Temperatura: 11 °C

Se simte ca: 10.4 °C
Innorat: 0 %
Precipitatii: 0 %
Presiune atmosferica: 1019 hPa
Umiditate: 66%
Vizibilitate: 10 km
Vantul bate din SE cu 6.8 km/h

Evolutia vremii in Arad pe ore

Ora: 03:00
Parțial noros
Temperatura: 14.2°C
Sansa de precipitatii: 0%
Ora Descriere Temp Se simte Precipitatii Umiditate Vant
00:00Parțial noros15.7°15.8°0%40%SE 5 KM/H
01:00Parțial noros15.1°15.3°0%41%SE 5.4 KM/H
02:00Parțial noros14.6°14.9°0%42%SSE 5.4 KM/H
03:00Parțial noros14.2°14.5°0%43%SE 5 KM/H
04:00Parțial noros13.9°14.2°0%45%SE 5 KM/H
05:00Parțial noros13.5°13.8°0%46%ESE 4.7 KM/H
06:00Parțial noros13.8°14.2°0%47%ESE 4.3 KM/H
07:00Parțial noros14°14.5°0%48%ESE 4.3 KM/H
08:00Parțial noros14.3°14.9°0%48%ESE 4 KM/H
09:00Parțial noros16.6°17°0%43%E 4 KM/H
10:00Parțial noros18.8°19°0%38%ENE 4.3 KM/H
11:00Parțial noros21.1°21.1°0%32%NE 4.3 KM/H
12:00Parțial noros21.9°21.9°0%30%NNE 5.4 KM/H
13:00Parțial noros22.8°23.5°0%28%NNE 6.5 KM/H
14:00Parțial noros23.6°23.6°0%27%N 7.6 KM/H
15:00Parțial noros22.9°23.4°0%28%ESE 8.3 KM/H
16:00Parțial noros22.2°23.3°0%29%WSW 8.6 KM/H
17:00Parțial noros21.5°21.5°0%30%N 9.4 KM/H
18:00Parțial noros20.3°20.3°0%32%WSW 9.7 KM/H
19:00Parțial noros19.1°19.1°0%34%SE 9.7 KM/H
20:00Parțial noros17.9°17.9°0%36%NNE 10.1 KM/H
21:00Parțial noros17.4°17.4°0%38%SE 10.1 KM/H
22:00Parțial noros17°17°0%40%WSW 9.7 KM/H
23:00Parțial noros16.5°16.5°0%42%N 9.7 KM/H